Time;durP1;ratioP1;P1;durP2;ratioP2;P2;SDS_P1;SDS_P2;PMS_P1;PMS_P2;Temp;Humidity;BMP_temperature;BMP_pressure;BME280_temperature;BME280_humidity;BME280_pressure;Samples;Min_cycle;Max_cycle;Signal;HPM_P1;HPM_P2
2021/04/15 00:01:26;;;;;;;9.77;6.53;;;3.10;97.30;;;;;;5017020;28;20929;-85
2021/04/15 00:03:52;;;;;;;8.50;5.70;;;3.00;97.30;;;;;;5010392;28;20195;-85
2021/04/15 00:06:24;;;;;;;13.03;5.90;;;3.00;97.30;;;;;;5017846;28;20463;-84
2021/04/15 00:08:51;;;;;;;9.67;5.90;;;3.00;97.30;;;;;;5018147;28;20415;-85
2021/04/15 00:11:19;;;;;;;12.70;6.10;;;3.00;97.30;;;;;;5017501;28;20415;-84
2021/04/15 00:13:51;;;;;;;13.53;7.17;;;3.00;97.30;;;;;;5017752;28;20419;-85
2021/04/15 00:16:18;;;;;;;11.60;7.00;;;3.00;97.30;;;;;;5017167;28;20578;-85
2021/04/15 00:18:44;;;;;;;11.20;6.80;;;3.00;97.30;;;;;;5018091;28;20451;-85
2021/04/15 00:21:11;;;;;;;9.93;6.80;;;3.00;97.30;;;;;;5016386;28;20520;-84
2021/04/15 00:23:37;;;;;;;12.83;7.40;;;3.10;97.30;;;;;;5034123;28;20477;-85
2021/04/15 00:26:04;;;;;;;11.37;6.23;;;3.00;97.30;;;;;;5015307;28;21001;-84
2021/04/15 00:28:30;;;;;;;13.10;6.23;;;3.00;97.30;;;;;;5016181;28;20415;-85
2021/04/15 00:30:55;;;;;;;15.13;7.20;;;3.00;97.30;;;;;;5016063;28;20426;-85
2021/04/15 00:33:21;;;;;;;11.00;7.50;;;3.00;97.30;;;;;;5016324;28;20172;-85
2021/04/15 00:35:48;;;;;;;16.50;8.10;;;2.90;97.30;;;;;;5016533;28;20258;-85
2021/04/15 00:38:16;;;;;;;18.23;7.07;;;2.90;97.30;;;;;;5015826;28;20957;-85
2021/04/15 00:40:43;;;;;;;13.87;7.47;;;2.90;97.30;;;;;;5016518;28;20524;-84
2021/04/15 00:43:09;;;;;;;17.37;8.90;;;2.90;97.30;;;;;;5016331;28;20430;-85
2021/04/15 00:45:38;;;;;;;10.73;6.70;;;2.90;97.30;;;;;;5016597;28;20458;-85
2021/04/15 00:48:26;;;;;;;13.27;7.50;;;3.00;97.30;;;;;;5001472;28;20427;-85
2021/04/15 00:51:00;;;;;;;12.53;7.63;;;2.90;97.30;;;;;;5009273;28;20423;-86
2021/04/15 00:53:55;;;;;;;11.97;6.90;;;2.90;97.30;;;;;;5020909;28;20442;-87
2021/04/15 00:56:21;;;;;;;13.63;7.70;;;2.90;97.30;;;;;;5034762;28;20490;-85
2021/04/15 00:58:48;;;;;;;12.10;7.30;;;3.00;97.30;;;;;;4998127;28;20927;-85
2021/04/15 01:01:15;;;;;;;14.40;7.63;;;3.00;97.30;;;;;;4996384;28;20872;-85
2021/04/15 01:03:40;;;;;;;13.43;7.97;;;2.90;97.30;;;;;;4996443;28;20499;-85
2021/04/15 01:06:07;;;;;;;12.63;7.17;;;2.90;97.30;;;;;;4995654;28;20998;-85
2021/04/15 01:08:33;;;;;;;11.23;6.60;;;3.00;97.30;;;;;;4995824;28;20640;-85
2021/04/15 01:11:02;;;;;;;13.50;7.70;;;2.90;97.30;;;;;;4995406;28;20420;-85
2021/04/15 01:14:02;;;;;;;12.43;7.47;;;2.90;97.30;;;;;;5013621;28;20440;-85
2021/04/15 01:16:47;;;;;;;18.87;7.70;;;2.90;97.30;;;;;;4995525;28;20986;-85
2021/04/15 01:19:43;;;;;;;17.13;7.70;;;2.90;97.30;;;;;;5013538;28;20404;-85
2021/04/15 01:22:27;;;;;;;14.40;8.13;;;2.90;97.30;;;;;;4995260;28;20934;-85
2021/04/15 01:25:06;;;;;;;13.87;6.80;;;2.90;97.30;;;;;;4995745;28;20416;-84
2021/04/15 01:27:35;;;;;;;12.53;7.07;;;2.90;97.30;;;;;;5013332;28;20444;-84
2021/04/15 01:30:28;;;;;;;12.10;7.23;;;2.90;97.30;;;;;;4995208;28;20923;-85
2021/04/15 01:33:14;;;;;;;14.23;7.53;;;2.90;97.30;;;;;;4994876;28;20444;-85
2021/04/15 01:35:50;;;;;;;13.30;7.23;;;2.90;97.30;;;;;;5012495;28;20503;-85
2021/04/15 01:38:21;;;;;;;12.30;7.37;;;2.80;97.30;;;;;;4995612;28;20427;-84
2021/04/15 01:41:09;;;;;;;14.20;8.33;;;2.80;97.30;;;;;;4996124;28;20870;-85
2021/04/15 01:43:38;;;;;;;13.20;7.40;;;2.80;97.30;;;;;;4995845;28;20427;-86
2021/04/15 01:46:05;;;;;;;14.17;7.90;;;2.70;97.30;;;;;;4996035;28;20476;-85
2021/04/15 01:48:39;;;;;;;14.43;7.80;;;2.70;97.30;;;;;;5016103;28;20422;-85
2021/04/15 01:51:19;;;;;;;11.30;6.57;;;2.70;97.30;;;;;;5016690;28;20426;-85
2021/04/15 01:53:50;;;;;;;16.63;8.30;;;2.70;97.30;;;;;;5034043;28;20811;-85
2021/04/15 01:56:29;;;;;;;16.97;7.83;;;2.70;97.30;;;;;;5016497;28;20486;-85
2021/04/15 01:58:59;;;;;;;12.03;7.17;;;2.70;97.30;;;;;;5016848;28;20434;-84
2021/04/15 02:01:26;;;;;;;15.67;7.97;;;2.60;97.30;;;;;;5016738;28;20779;-85
2021/04/15 02:03:58;;;;;;;12.90;7.53;;;2.60;97.30;;;;;;5016121;28;20553;-85
2021/04/15 02:06:27;;;;;;;14.93;8.30;;;2.60;97.30;;;;;;5016296;28;20497;-84
2021/04/15 02:09:08;;;;;;;15.83;7.57;;;2.50;97.30;;;;;;5033876;28;20563;-84
2021/04/15 02:11:46;;;;;;;12.07;7.50;;;2.40;97.30;;;;;;5015562;28;20776;-84
2021/04/15 02:14:17;;;;;;;16.97;7.83;;;2.30;97.30;;;;;;5015171;28;20526;-84
2021/04/15 02:16:46;;;;;;;16.13;7.97;;;2.30;97.30;;;;;;5015277;28;20443;-84
2021/04/15 02:19:27;;;;;;;11.30;6.83;;;2.30;97.30;;;;;;5015006;28;20419;-85
2021/04/15 02:22:30;;;;;;;13.43;7.70;;;2.20;97.30;;;;;;5015035;28;20462;-85
2021/04/15 02:25:18;;;;;;;15.13;7.80;;;2.20;97.30;;;;;;5015419;28;20768;-86
2021/04/15 02:27:56;;;;;;;14.63;6.83;;;2.10;97.30;;;;;;5014987;28;20438;-85
2021/04/15 02:30:47;;;;;;;16.97;8.20;;;2.10;97.30;;;;;;5015009;28;20403;-85
2021/04/15 02:33:30;;;;;;;15.17;7.47;;;2.10;97.30;;;;;;5000015;28;20419;-85
2021/04/15 02:36:00;;;;;;;12.53;7.10;;;2.00;97.30;;;;;;5014703;28;20798;-85
2021/04/15 02:38:33;;;;;;;13.10;7.67;;;1.90;97.30;;;;;;5014975;28;20414;-85
2021/04/15 02:41:02;;;;;;;10.30;6.60;;;1.90;97.30;;;;;;5015088;28;20403;-83
2021/04/15 02:43:44;;;;;;;18.10;7.83;;;1.80;97.30;;;;;;4998916;28;20427;-85
2021/04/15 02:46:21;;;;;;;14.47;7.63;;;1.80;97.30;;;;;;5013653;28;20462;-85
2021/04/15 02:48:49;;;;;;;13.13;7.77;;;1.80;97.30;;;;;;4995754;28;20412;-84
2021/04/15 02:51:22;;;;;;;13.47;7.37;;;1.80;97.30;;;;;;4997925;28;20771;-84
2021/04/15 02:53:55;;;;;;;12.53;7.03;;;1.70;97.30;;;;;;4982018;28;20419;-84
2021/04/15 02:56:28;;;;;;;11.80;6.53;;;1.70;97.30;;;;;;4997614;28;20496;-85
2021/04/15 02:59:06;;;;;;;12.30;7.03;;;1.70;97.30;;;;;;4998144;28;20475;-85
2021/04/15 03:01:38;;;;;;;14.30;7.20;;;1.70;97.30;;;;;;4998162;28;20419;-85
2021/04/15 03:04:07;;;;;;;13.70;5.80;;;1.70;97.30;;;;;;4997658;28;20857;-84
2021/04/15 03:06:35;;;;;;;13.87;6.57;;;1.70;97.30;;;;;;4997771;28;20905;-84
2021/04/15 03:09:06;;;;;;;15.57;6.70;;;1.70;97.30;;;;;;4997364;28;20506;-85
2021/04/15 03:11:35;;;;;;;12.47;6.97;;;1.60;97.30;;;;;;4997751;28;20923;-85
2021/04/15 03:14:07;;;;;;;11.10;7.10;;;1.60;97.30;;;;;;4997458;28;20428;-85
2021/04/15 03:16:39;;;;;;;9.37;5.97;;;1.60;97.30;;;;;;4997489;28;20431;-85
2021/04/15 03:19:20;;;;;;;10.87;6.30;;;1.60;97.30;;;;;;4997317;28;20428;-84
2021/04/15 03:21:58;;;;;;;11.00;6.70;;;1.50;97.30;;;;;;4997287;28;20426;-85
2021/04/15 03:24:32;;;;;;;10.40;6.23;;;1.50;97.30;;;;;;4997159;28;20930;-85
2021/04/15 03:27:45;;;;;;;11.20;7.20;;;1.50;97.30;;;;;;5015525;28;20988;-85
2021/04/15 03:30:14;;;;;;;12.67;6.70;;;1.50;97.30;;;;;;4996875;28;20427;-84
2021/04/15 03:33:01;;;;;;;13.50;6.40;;;1.50;97.30;;;;;;5016375;28;20405;-84
2021/04/15 03:35:38;;;;;;;12.43;6.57;;;1.50;97.30;;;;;;4998424;28;20408;-85
2021/04/15 03:38:28;;;;;;;12.23;6.53;;;1.50;97.30;;;;;;5016361;28;20419;-85
2021/04/15 03:41:02;;;;;;;11.97;7.13;;;1.50;97.30;;;;;;4998766;28;20488;-85
2021/04/15 03:43:41;;;;;;;13.53;6.63;;;1.40;97.30;;;;;;4998615;28;20956;-85
2021/04/15 03:46:35;;;;;;;12.73;6.80;;;1.40;97.30;;;;;;4998916;28;20539;-85
2021/04/15 03:49:32;;;;;;;11.27;7.00;;;1.40;97.30;;;;;;4993265;28;20424;-85
2021/04/15 03:52:20;;;;;;;14.20;7.10;;;1.40;97.30;;;;;;4998414;28;20847;-85
2021/04/15 03:54:50;;;;;;;13.17;7.47;;;1.40;97.30;;;;;;5015499;28;20417;-85
2021/04/15 03:57:19;;;;;;;13.17;6.43;;;1.30;97.30;;;;;;5038449;23;20564;-85
2021/04/15 03:59:44;;;;;;;12.83;7.60;;;1.30;97.30;;;;;;5031482;28;20407;-85
2021/04/15 04:02:19;;;;;;;13.70;7.00;;;1.30;97.30;;;;;;5017262;28;20940;-85
2021/04/15 04:04:52;;;;;;;10.57;6.50;;;1.30;97.30;;;;;;5001412;28;20187;-85
2021/04/15 04:07:31;;;;;;;18.13;6.73;;;1.20;97.30;;;;;;5017118;28;20561;-84
2021/04/15 04:10:03;;;;;;;11.13;6.80;;;1.20;97.30;;;;;;5017478;28;20411;-85
2021/04/15 04:12:37;;;;;;;12.07;6.50;;;1.20;97.30;;;;;;5035322;28;20403;-84
2021/04/15 04:15:15;;;;;;;13.33;6.70;;;1.20;97.30;;;;;;5017075;28;20794;-84
2021/04/15 04:18:06;;;;;;;12.63;7.50;;;1.10;97.30;;;;;;5017236;28;21012;-84
2021/04/15 04:20:38;;;;;;;12.83;7.00;;;1.10;97.30;;;;;;5017233;28;20443;-85
2021/04/15 04:23:09;;;;;;;14.77;7.50;;;1.10;97.30;;;;;;5017361;28;20421;-85
2021/04/15 04:25:44;;;;;;;12.57;6.70;;;1.10;97.30;;;;;;5016774;28;20450;-85
2021/04/15 04:28:26;;;;;;;14.03;7.10;;;1.10;97.30;;;;;;5016219;28;20445;-85
2021/04/15 04:30:57;;;;;;;11.70;7.07;;;1.00;97.30;;;;;;5016603;28;20419;-85
2021/04/15 04:33:47;;;;;;;15.60;7.67;;;1.00;97.30;;;;;;5034928;28;20403;-85
2021/04/15 04:36:16;;;;;;;13.50;6.83;;;1.00;97.30;;;;;;5014420;28;20513;-85
2021/04/15 04:38:43;;;;;;;11.77;6.73;;;1.00;97.30;;;;;;5015602;28;20403;-85
2021/04/15 04:41:23;;;;;;;12.83;6.57;;;1.00;97.30;;;;;;5032920;28;20462;-84
2021/04/15 04:43:56;;;;;;;13.83;6.87;;;1.00;97.30;;;;;;5015140;28;20414;-85
2021/04/15 04:46:35;;;;;;;11.67;6.40;;;1.00;97.30;;;;;;5013807;28;20529;-85
2021/04/15 04:49:10;;;;;;;16.13;6.93;;;1.00;97.30;;;;;;5009742;28;20978;-84
2021/04/15 04:51:52;;;;;;;11.77;6.30;;;1.00;97.30;;;;;;5011675;28;20426;-85
2021/04/15 04:54:20;;;;;;;14.40;6.63;;;1.00;97.30;;;;;;5015165;28;20422;-83
2021/04/15 04:56:58;;;;;;;12.60;6.43;;;1.00;97.30;;;;;;5014898;28;20520;-84
2021/04/15 04:59:29;;;;;;;13.20;6.70;;;1.00;97.30;;;;;;5011385;28;20806;-84
2021/04/15 05:01:55;;;;;;;8.90;5.90;;;1.00;97.30;;;;;;5012127;28;20429;-83
2021/04/15 05:04:32;;;;;;;15.23;6.80;;;1.10;97.30;;;;;;5014636;28;20419;-84
2021/04/15 05:07:06;;;;;;;13.13;5.67;;;1.10;97.30;;;;;;5014184;28;20253;-84
2021/04/15 05:09:35;;;;;;;11.87;6.33;;;1.10;97.30;;;;;;5032971;28;20450;-85
2021/04/15 05:12:06;;;;;;;16.73;6.80;;;1.20;97.30;;;;;;5014991;28;20447;-84
2021/04/15 05:14:32;;;;;;;11.73;6.50;;;1.20;97.30;;;;;;5014578;28;20427;-86
2021/04/15 05:17:27;;;;;;;10.30;5.80;;;1.30;97.30;;;;;;5014830;28;20448;-88
2021/04/15 05:19:54;;;;;;;10.97;5.87;;;1.30;97.30;;;;;;5014714;28;20422;-85
2021/04/15 05:22:29;;;;;;;12.67;5.90;;;1.40;97.30;;;;;;5016147;28;20463;-85
2021/04/15 05:25:04;;;;;;;11.23;5.50;;;1.40;97.30;;;;;;5033985;28;20421;-85
2021/04/15 05:27:33;;;;;;;10.13;5.50;;;1.50;97.30;;;;;;5016911;28;20874;-85
2021/04/15 05:30:12;;;;;;;15.23;5.37;;;1.50;97.30;;;;;;5016481;28;20450;-85
2021/04/15 05:32:38;;;;;;;13.50;5.87;;;1.50;97.30;;;;;;5016025;28;20670;-84
2021/04/15 05:35:05;;;;;;;10.00;5.73;;;1.60;97.30;;;;;;5015650;28;20408;-86
2021/04/15 05:37:30;;;;;;;11.00;6.30;;;1.60;97.30;;;;;;5016653;28;21031;-85
2021/04/15 05:39:57;;;;;;;10.70;4.97;;;1.60;97.30;;;;;;5034230;28;20415;-85
2021/04/15 05:42:33;;;;;;;9.40;4.70;;;1.70;97.30;;;;;;5016733;28;20648;-85
2021/04/15 05:45:07;;;;;;;14.97;4.50;;;1.70;97.30;;;;;;5033754;28;20506;-85
2021/04/15 05:48:01;;;;;;;8.30;5.23;;;1.80;97.30;;;;;;5033425;28;20459;-84
2021/04/15 05:50:42;;;;;;;6.67;4.73;;;1.90;97.30;;;;;;5011988;28;20493;-85
2021/04/15 05:53:16;;;;;;;10.67;5.90;;;2.00;97.30;;;;;;5015380;28;20415;-85
2021/04/15 05:55:50;;;;;;;8.27;6.00;;;2.00;97.30;;;;;;5015503;28;20422;-85
2021/04/15 05:58:41;;;;;;;7.60;4.30;;;2.10;97.30;;;;;;5015020;28;20840;-85
2021/04/15 06:01:07;;;;;;;6.43;5.13;;;2.20;97.30;;;;;;5015330;28;20419;-85
2021/04/15 06:03:42;;;;;;;8.87;5.60;;;2.20;97.30;;;;;;5015815;28;20419;-86
2021/04/15 06:06:15;;;;;;;10.90;4.90;;;2.30;97.30;;;;;;5015703;28;20230;-84
2021/04/15 06:08:44;;;;;;;9.73;5.20;;;2.40;97.30;;;;;;5024351;28;20412;-86
2021/04/15 06:11:09;;;;;;;9.27;4.50;;;2.50;97.30;;;;;;5033199;28;20429;-86
2021/04/15 06:14:17;;;;;;;8.73;5.13;;;2.50;97.30;;;;;;5037760;28;20506;-85
2021/04/15 06:16:46;;;;;;;15.90;5.60;;;2.60;97.30;;;;;;5010865;28;20226;-85
2021/04/15 06:19:21;;;;;;;7.03;4.30;;;2.70;97.30;;;;;;5031180;28;20430;-82
2021/04/15 06:21:52;;;;;;;10.80;5.53;;;2.70;97.30;;;;;;5027449;28;20550;-86
2021/04/15 06:24:30;;;;;;;9.50;4.87;;;2.70;97.30;;;;;;5031371;28;20419;-85
2021/04/15 06:27:00;;;;;;;7.10;5.50;;;2.80;97.30;;;;;;5041744;28;20466;-84
2021/04/15 06:29:28;;;;;;;9.67;5.47;;;2.80;97.30;;;;;;5013204;28;20419;-85
2021/04/15 06:31:58;;;;;;;9.37;5.23;;;2.90;97.30;;;;;;5012910;28;20423;-83
2021/04/15 06:34:27;;;;;;;7.37;4.90;;;2.90;97.30;;;;;;5007853;28;20418;-84
2021/04/15 06:37:12;;;;;;;9.77;5.03;;;3.00;97.30;;;;;;5012780;28;20439;-86
2021/04/15 06:39:50;;;;;;;7.90;4.90;;;3.00;97.30;;;;;;5012621;28;21015;-85
2021/04/15 06:42:34;;;;;;;16.20;5.20;;;3.10;97.30;;;;;;5013333;28;20465;-87
2021/04/15 06:45:18;;;;;;;6.67;4.57;;;3.20;97.30;;;;;;5013621;28;20419;-87
2021/04/15 06:47:50;;;;;;;7.30;4.80;;;3.20;97.30;;;;;;5013630;28;20505;-86
2021/04/15 06:50:34;;;;;;;9.33;4.70;;;3.30;97.30;;;;;;5013797;28;20424;-85
2021/04/15 06:53:06;;;;;;;11.43;4.93;;;3.40;97.30;;;;;;5014197;28;20415;-85
2021/04/15 06:55:52;;;;;;;6.60;4.30;;;3.50;97.30;;;;;;5015131;28;20941;-85
2021/04/15 06:58:24;;;;;;;5.93;4.60;;;3.50;97.30;;;;;;5033346;28;21008;-85
2021/04/15 07:01:09;;;;;;;9.37;4.80;;;3.60;97.30;;;;;;5012654;28;20452;-85
2021/04/15 07:03:56;;;;;;;7.93;4.43;;;3.70;97.30;;;;;;5013246;28;20423;-85
2021/04/15 07:06:45;;;;;;;8.50;4.20;;;3.80;97.30;;;;;;5012700;28;20781;-85
2021/04/15 07:09:22;;;;;;;10.00;4.20;;;4.00;97.30;;;;;;5014017;28;20411;-86
2021/04/15 07:12:25;;;;;;;9.60;4.50;;;4.00;97.30;;;;;;5014913;28;20458;-86
2021/04/15 07:15:07;;;;;;;8.53;5.10;;;4.10;97.30;;;;;;5014838;28;20419;-86
2021/04/15 07:17:55;;;;;;;7.03;4.37;;;4.20;97.30;;;;;;5015310;28;20439;-85
2021/04/15 07:20:44;;;;;;;10.23;5.00;;;4.30;97.30;;;;;;5015287;28;20431;-86
2021/04/15 07:23:30;;;;;;;10.37;4.83;;;4.40;97.30;;;;;;5015298;28;20426;-83
2021/04/15 07:25:59;;;;;;;8.20;4.17;;;4.60;97.30;;;;;;5014688;28;20593;-85
2021/04/15 07:29:02;;;;;;;11.07;6.13;;;4.80;97.30;;;;;;5012852;28;20430;-86
2021/04/15 07:31:52;;;;;;;12.00;4.43;;;4.90;97.30;;;;;;5014120;28;20419;-83
2021/04/15 07:34:40;;;;;;;10.60;4.27;;;5.00;97.30;;;;;;5015106;28;20949;-85
2021/04/15 07:37:12;;;;;;;7.67;4.27;;;5.10;97.30;;;;;;5017697;28;20453;-83
2021/04/15 07:40:01;;;;;;;10.03;4.40;;;5.10;97.30;;;;;;5017922;28;20447;-85
2021/04/15 07:42:48;;;;;;;8.60;4.10;;;5.20;97.30;;;;;;5017653;28;20489;-85
2021/04/15 07:45:30;;;;;;;6.50;3.90;;;5.30;97.30;;;;;;5015000;28;20914;-83
2021/04/15 07:48:44;;;;;;;9.80;4.10;;;5.30;97.30;;;;;;5018097;28;20439;-85
2021/04/15 07:51:46;;;;;;;10.73;4.33;;;5.40;97.30;;;;;;4953665;28;20922;-82
2021/04/15 07:54:40;;;;;;;11.50;5.07;;;5.40;97.30;;;;;;5017313;28;20415;-85
2021/04/15 07:57:33;;;;;;;8.43;4.10;;;5.40;97.30;;;;;;5017071;28;20501;-83
2021/04/15 08:00:22;;;;;;;9.47;3.90;;;5.50;97.30;;;;;;5015831;28;20437;-85
2021/04/15 08:03:18;;;;;;;9.80;4.43;;;5.70;97.30;;;;;;5015414;28;20419;-84
2021/04/15 08:06:05;;;;;;;6.10;4.20;;;5.90;97.30;;;;;;5015365;28;20516;-85
2021/04/15 08:08:55;;;;;;;11.47;4.60;;;6.00;97.30;;;;;;5017198;28;20476;-84
2021/04/15 08:11:58;;;;;;;9.90;3.87;;;6.00;97.00;;;;;;5018640;28;20407;-85
2021/04/15 08:15:08;;;;;;;10.47;4.27;;;6.00;96.50;;;;;;5016988;28;20943;-85
2021/04/15 08:18:00;;;;;;;8.90;3.70;;;6.10;96.20;;;;;;5016268;28;20449;-85
2021/04/15 08:20:29;;;;;;;9.40;4.00;;;6.10;95.90;;;;;;5015660;28;20412;-85
2021/04/15 08:23:19;;;;;;;9.40;4.53;;;6.20;94.70;;;;;;5016363;28;20415;-85
2021/04/15 08:25:45;;;;;;;4.10;2.90;;;6.30;94.90;;;;;;5015869;28;20864;-84
2021/04/15 08:29:11;;;;;;;8.07;3.50;;;6.40;92.70;;;;;;5033935;28;20522;-85
2021/04/15 08:32:27;;;;;;;5.70;3.30;;;6.40;93.20;;;;;;4918006;29;20223;-85
2021/04/15 08:34:56;;;;;;;4.43;3.10;;;6.60;93.60;;;;;;4892845;29;20507;-84
2021/04/15 08:37:53;;;;;;;5.50;3.70;;;6.70;92.70;;;;;;5013162;28;20446;-85
2021/04/15 08:40:46;;;;;;;5.53;3.30;;;6.70;92.40;;;;;;5015507;28;20515;-85
2021/04/15 08:43:27;;;;;;;5.40;3.60;;;6.70;92.70;;;;;;5016409;28;20469;-85
2021/04/15 08:46:14;;;;;;;4.93;3.23;;;6.70;92.30;;;;;;5015856;28;21141;-85
2021/04/15 08:48:56;;;;;;;4.53;3.50;;;6.80;91.40;;;;;;5005090;28;20847;-85
2021/04/15 08:51:46;;;;;;;5.00;3.43;;;6.80;90.40;;;;;;5014690;28;20930;-85
2021/04/15 08:54:29;;;;;;;9.50;3.77;;;6.90;90.60;;;;;;5017342;28;20415;-84
2021/04/15 08:56:57;;;;;;;6.50;3.80;;;6.90;89.30;;;;;;5035263;28;20554;-85
2021/04/15 08:59:58;;;;;;;6.20;3.60;;;6.90;90.80;;;;;;5018294;28;20443;-85
2021/04/15 09:02:33;;;;;;;7.17;3.37;;;6.90;89.30;;;;;;5018927;28;20421;-85
2021/04/15 09:04:59;;;;;;;5.10;3.07;;;7.00;90.20;;;;;;5018687;28;20410;-85
2021/04/15 09:07:32;;;;;;;5.10;3.23;;;7.10;89.70;;;;;;5036335;28;20520;-85
2021/04/15 09:10:10;;;;;;;5.57;2.77;;;7.30;90.30;;;;;;5019108;28;20725;-83
2021/04/15 09:13:12;;;;;;;7.90;3.67;;;7.30;88.10;;;;;;5018330;28;20785;-85
2021/04/15 09:15:52;;;;;;;3.77;2.67;;;7.30;88.80;;;;;;5018180;28;20503;-83
2021/04/15 09:18:27;;;;;;;4.37;2.27;;;7.30;85.60;;;;;;5036055;28;20438;-85
2021/04/15 09:21:14;;;;;;;4.87;2.40;;;7.30;85.70;;;;;;5018366;28;20906;-84
2021/04/15 09:23:51;;;;;;;2.50;2.00;;;7.50;85.50;;;;;;5017779;28;20404;-86
2021/04/15 09:27:05;;;;;;;3.57;2.20;;;7.60;83.60;;;;;;5016949;28;20453;-85
2021/04/15 09:29:37;;;;;;;3.77;2.73;;;7.80;83.90;;;;;;4918907;29;20419;-84
2021/04/15 09:32:32;;;;;;;3.47;2.30;;;7.90;84.20;;;;;;4919812;29;20420;-85
2021/04/15 09:35:39;;;;;;;5.80;2.80;;;7.90;84.10;;;;;;4994856;28;20419;-83
2021/04/15 09:38:37;;;;;;;3.70;2.30;;;7.90;82.50;;;;;;4979962;28;20431;-85
2021/04/15 09:41:17;;;;;;;3.40;2.97;;;7.90;83.50;;;;;;5035142;28;20400;-85
2021/04/15 09:43:43;;;;;;;2.30;2.00;;;7.80;83.10;;;;;;5017286;28;20403;-85
2021/04/15 09:46:17;;;;;;;6.73;2.50;;;7.90;83.50;;;;;;5017091;28;20443;-85
2021/04/15 09:49:05;;;;;;;3.70;2.13;;;8.00;83.30;;;;;;5034521;28;20243;-84
2021/04/15 09:51:40;;;;;;;4.60;2.20;;;8.10;79.90;;;;;;5014943;28;20448;-85
2021/04/15 09:54:21;;;;;;;2.37;1.90;;;8.10;80.90;;;;;;5013808;28;20927;-85
2021/04/15 09:57:00;;;;;;;6.73;1.87;;;8.20;80.60;;;;;;5013734;28;20473;-86
2021/04/15 10:00:07;;;;;;;4.00;1.90;;;8.20;80.00;;;;;;5036286;23;20587;-75
2021/04/15 10:02:54;;;;;;;2.50;1.73;;;8.20;81.20;;;;;;5002853;28;20483;-75
2021/04/15 10:05:56;;;;;;;4.40;2.30;;;8.30;79.60;;;;;;5028362;28;20439;-75
2021/04/15 10:08:46;;;;;;;6.23;2.30;;;8.30;80.20;;;;;;4998719;28;20411;-75
2021/04/15 10:11:27;;;;;;;2.67;1.93;;;8.30;78.60;;;;;;5022527;28;20420;-75
2021/04/15 10:13:56;;;;;;;2.33;1.90;;;8.30;78.30;;;;;;5007597;28;20434;-75
2021/04/15 10:17:03;;;;;;;2.13;1.73;;;8.30;77.60;;;;;;5002539;28;20404;-75
2021/04/15 10:19:58;;;;;;;3.10;1.90;;;8.40;79.20;;;;;;4954476;28;20429;-75
2021/04/15 10:23:02;;;;;;;1.97;1.50;;;8.60;78.20;;;;;;5012686;28;20451;-75
2021/04/15 10:25:37;;;;;;;2.87;2.10;;;8.70;77.50;;;;;;5010975;28;20403;-75
2021/04/15 10:28:24;;;;;;;3.80;1.93;;;8.60;77.60;;;;;;5008097;28;20431;-75
2021/04/15 10:31:24;;;;;;;2.17;2.00;;;8.70;77.40;;;;;;5007335;28;20450;-75
2021/04/15 10:34:28;;;;;;;1.80;1.70;;;8.80;77.70;;;;;;5014265;28;21056;-75
2021/04/15 10:37:01;;;;;;;2.30;1.83;;;9.00;77.10;;;;;;4985242;28;20450;-76
2021/04/15 10:39:27;;;;;;;3.53;2.03;;;9.20;77.50;;;;;;5031453;28;20395;-75
2021/04/15 10:41:53;;;;;;;2.57;1.67;;;9.30;78.20;;;;;;5031453;28;20427;-76
2021/04/15 10:44:37;;;;;;;2.13;1.70;;;9.40;77.70;;;;;;5004174;28;20407;-75
2021/04/15 10:47:26;;;;;;;2.50;1.70;;;9.20;75.80;;;;;;5013851;28;20709;-75
2021/04/15 10:50:11;;;;;;;2.63;1.93;;;9.20;75.10;;;;;;5028024;28;20399;-76
2021/04/15 10:52:55;;;;;;;3.43;2.00;;;9.10;75.40;;;;;;5004823;28;20438;-76
2021/04/15 10:55:22;;;;;;;8.17;2.10;;;9.20;76.90;;;;;;4999574;28;20415;-75
2021/04/15 10:57:49;;;;;;;7.40;1.80;;;9.40;76.90;;;;;;5012021;28;20499;-75
2021/04/15 11:00:24;;;;;;;2.07;1.53;;;9.60;75.60;;;;;;4998215;28;20471;-76
2021/04/15 11:02:51;;;;;;;3.00;1.80;;;9.70;76.20;;;;;;5031790;28;20406;-75
2021/04/15 11:05:21;;;;;;;3.93;2.13;;;9.70;74.30;;;;;;5031243;28;20480;-74
2021/04/15 11:07:49;;;;;;;5.97;3.20;;;9.80;74.20;;;;;;5013396;28;20969;-73
2021/04/15 11:10:30;;;;;;;3.50;1.87;;;9.60;73.90;;;;;;5015506;28;20419;-73
2021/04/15 11:13:18;;;;;;;2.00;1.80;;;9.30;73.50;;;;;;5017323;28;20429;-73
2021/04/15 11:15:51;;;;;;;1.97;1.90;;;9.10;74.30;;;;;;5017003;28;20410;-74
2021/04/15 11:18:29;;;;;;;3.50;2.20;;;8.80;74.60;;;;;;5034694;28;20762;-74
2021/04/15 11:21:16;;;;;;;1.67;1.63;;;8.80;75.40;;;;;;5035168;28;20433;-75
2021/04/15 11:23:42;;;;;;;3.07;1.80;;;8.90;75.50;;;;;;5034624;28;20411;-74
2021/04/15 11:26:30;;;;;;;2.60;1.90;;;8.80;75.90;;;;;;5034481;28;20471;-74
2021/04/15 11:28:59;;;;;;;2.67;1.90;;;8.90;75.90;;;;;;5016651;28;20427;-74
2021/04/15 11:31:38;;;;;;;3.83;2.00;;;9.10;77.20;;;;;;5034309;28;20431;-75
2021/04/15 11:34:26;;;;;;;8.70;2.00;;;9.00;74.90;;;;;;5016755;28;20461;-74
2021/04/15 11:37:19;;;;;;;5.90;2.30;;;8.90;76.20;;;;;;5006027;28;20449;-74
2021/04/15 11:39:45;;;;;;;4.70;2.03;;;8.90;75.90;;;;;;4997056;28;20416;-74
2021/04/15 11:42:14;;;;;;;2.40;1.90;;;9.00;75.40;;;;;;4996700;28;20990;-74
2021/04/15 11:44:55;;;;;;;2.20;1.90;;;9.20;75.80;;;;;;4996859;28;20418;-74
2021/04/15 11:47:28;;;;;;;2.90;1.90;;;9.40;74.20;;;;;;5005773;28;20446;-74
2021/04/15 11:50:22;;;;;;;7.00;1.80;;;9.50;75.20;;;;;;5022399;28;20420;-74
2021/04/15 11:52:53;;;;;;;2.63;2.03;;;9.70;74.50;;;;;;4996155;28;20483;-74
2021/04/15 11:55:32;;;;;;;3.30;1.97;;;9.70;74.40;;;;;;4995459;28;20850;-74
2021/04/15 11:58:02;;;;;;;2.70;2.00;;;9.50;74.90;;;;;;4995072;28;20420;-74
2021/04/15 12:00:34;;;;;;;2.93;1.90;;;9.40;75.20;;;;;;5011802;28;20456;-75
2021/04/15 12:03:00;;;;;;;1.90;1.60;;;9.20;74.30;;;;;;5013131;28;20413;-76
2021/04/15 12:05:32;;;;;;;2.80;2.13;;;9.00;72.80;;;;;;4995363;28;21014;-75
2021/04/15 12:08:17;;;;;;;5.20;2.40;;;9.00;74.50;;;;;;5011973;28;20212;-75
2021/04/15 12:10:47;;;;;;;2.10;1.80;;;9.10;73.40;;;;;;5011447;28;20467;-75
2021/04/15 12:13:40;;;;;;;1.93;1.40;;;9.50;74.20;;;;;;5011810;28;20412;-75
2021/04/15 12:16:18;;;;;;;2.10;1.83;;;9.90;73.50;;;;;;5011444;28;20412;-75
2021/04/15 12:18:53;;;;;;;3.07;2.10;;;10.00;74.90;;;;;;4995525;28;20770;-74
2021/04/15 12:21:31;;;;;;;2.30;1.70;;;9.70;73.10;;;;;;5011595;28;20443;-75
2021/04/15 12:23:59;;;;;;;1.83;1.67;;;9.30;75.10;;;;;;5012851;28;20404;-75
2021/04/15 12:26:39;;;;;;;2.00;1.73;;;8.90;76.10;;;;;;4994889;28;20546;-74
2021/04/15 12:29:25;;;;;;;3.27;2.10;;;8.80;78.20;;;;;;5011431;28;20416;-76
2021/04/15 12:32:26;;;;;;;3.03;2.20;;;8.80;79.20;;;;;;4995012;28;20963;-76
2021/04/15 12:35:16;;;;;;;2.57;2.13;;;8.60;78.50;;;;;;4922578;29;20429;-76
2021/04/15 12:38:05;;;;;;;4.07;2.07;;;8.60;78.40;;;;;;5016175;28;20996;-77
2021/04/15 12:40:35;;;;;;;2.93;1.97;;;8.80;79.60;;;;;;4994638;28;20415;-72
2021/04/15 12:43:05;;;;;;;3.60;2.00;;;8.80;79.40;;;;;;5012467;28;20408;-74
2021/04/15 12:45:59;;;;;;;5.40;2.13;;;8.70;78.90;;;;;;5012409;28;20757;-74
2021/04/15 12:48:55;;;;;;;4.90;3.23;;;9.00;80.90;;;;;;5017537;28;20432;-74
2021/04/15 12:51:43;;;;;;;2.63;2.10;;;9.30;79.20;;;;;;4960285;28;20432;-74
2021/04/15 12:54:35;;;;;;;4.10;2.43;;;9.60;78.70;;;;;;4994531;28;20478;-76
2021/04/15 12:57:04;;;;;;;3.03;2.13;;;9.80;79.40;;;;;;4984906;28;20986;-75
2021/04/15 12:59:39;;;;;;;2.87;2.27;;;9.90;77.70;;;;;;5012604;28;21013;-73
2021/04/15 13:02:31;;;;;;;2.10;1.83;;;9.90;78.00;;;;;;5013977;28;20466;-73
2021/04/15 13:05:09;;;;;;;1.87;1.70;;;9.70;76.90;;;;;;5014174;28;20495;-75
2021/04/15 13:07:39;;;;;;;2.70;1.80;;;9.10;73.60;;;;;;5011237;28;20490;-76
2021/04/15 13:10:14;;;;;;;2.53;1.73;;;8.90;75.10;;;;;;5012963;28;20495;-75
2021/04/15 13:12:50;;;;;;;2.37;1.73;;;8.90;76.40;;;;;;4995400;28;20510;-74
2021/04/15 13:15:27;;;;;;;2.90;1.40;;;8.90;76.00;;;;;;4995443;28;20414;-75
2021/04/15 13:18:05;;;;;;;4.53;1.80;;;8.80;75.70;;;;;;5017396;28;20419;-75
2021/04/15 13:20:31;;;;;;;3.40;1.87;;;8.80;75.70;;;;;;5014695;28;20422;-75
2021/04/15 13:23:09;;;;;;;3.00;1.70;;;8.80;75.20;;;;;;5014980;28;20821;-75
2021/04/15 13:25:55;;;;;;;2.53;1.90;;;8.70;77.00;;;;;;5015064;28;20176;-75
2021/04/15 13:28:47;;;;;;;2.17;1.70;;;8.60;76.80;;;;;;5014517;28;20439;-75
2021/04/15 13:31:37;;;;;;;2.00;1.73;;;8.40;77.10;;;;;;5014512;28;20582;-75
2021/04/15 13:34:13;;;;;;;3.80;1.90;;;8.30;77.30;;;;;;5014801;28;20438;-75
2021/04/15 13:36:40;;;;;;;2.07;1.90;;;8.30;76.70;;;;;;5014713;28;20796;-76
2021/04/15 13:39:43;;;;;;;2.47;1.90;;;8.40;77.70;;;;;;5001339;28;20435;-76
2021/04/15 13:42:30;;;;;;;2.50;1.90;;;8.40;78.10;;;;;;4995143;28;20440;-75
2021/04/15 13:44:59;;;;;;;2.17;1.87;;;8.50;79.00;;;;;;5012431;28;20431;-75
2021/04/15 13:47:51;;;;;;;2.03;1.87;;;8.50;78.30;;;;;;4995123;28;20448;-75
2021/04/15 13:50:18;;;;;;;4.33;2.20;;;8.50;79.00;;;;;;4986430;28;20419;-75
2021/04/15 13:52:44;;;;;;;1.90;1.80;;;8.40;78.20;;;;;;4994905;28;20526;-76
2021/04/15 13:55:30;;;;;;;3.93;2.00;;;8.40;79.90;;;;;;5012609;28;20432;-75